Time;durP1;ratioP1;P1;durP2;ratioP2;P2;SDS_P1;SDS_P2;PMS_P1;PMS_P2;Temp;Humidity;BMP_temperature;BMP_pressure;BME280_temperature;BME280_humidity;BME280_pressure;Samples;Min_cycle;Max_cycle;Signal;HPM_P1;HPM_P2
2021/12/12 00:01:24;;;;;;;9.15;5.65;;;;;;;;;;5066881;28;20040;-84
2021/12/12 00:03:56;;;;;;;15.82;10.73;;;;;;;;;;5056881;28;20035;-84
2021/12/12 00:06:29;;;;;;;13.18;8.23;;;;;;;;;;5066744;28;20096;-85
2021/12/12 00:09:04;;;;;;;11.27;7.85;;;;;;;;;;5071022;28;20024;-85
2021/12/12 00:11:32;;;;;;;15.38;10.18;;;;;;;;;;5060462;28;20380;-85
2021/12/12 00:14:12;;;;;;;11.50;8.10;;;;;;;;;;5058858;28;20445;-86
2021/12/12 00:16:38;;;;;;;20.23;9.85;;;;;;;;;;5076291;28;20029;-86
2021/12/12 00:19:04;;;;;;;22.67;11.52;;;;;;;;;;5058404;28;20507;-85
2021/12/12 00:21:33;;;;;;;22.33;9.90;;;;;;;;;;5072169;28;20476;-84
2021/12/12 00:23:59;;;;;;;23.80;11.90;;;;;;;;;;5078566;28;20544;-85
2021/12/12 00:26:25;;;;;;;16.95;9.80;;;;;;;;;;5063563;28;20119;-85
2021/12/12 00:28:51;;;;;;;19.42;11.90;;;;;;;;;;5062732;28;20020;-85
2021/12/12 00:31:19;;;;;;;22.15;13.27;;;;;;;;;;5069210;28;20028;-84
2021/12/12 00:33:49;;;;;;;25.38;16.48;;;;;;;;;;5059653;28;20033;-85
2021/12/12 00:36:17;;;;;;;33.45;16.45;;;;;;;;;;5076035;28;20028;-85
2021/12/12 00:38:47;;;;;;;21.45;14.18;;;;;;;;;;5063772;28;20029;-85
2021/12/12 00:41:16;;;;;;;27.15;15.70;;;;;;;;;;5076955;28;20020;-85
2021/12/12 00:43:51;;;;;;;23.77;14.43;;;;;;;;;;5082758;28;20039;-85
2021/12/12 00:46:18;;;;;;;29.98;14.85;;;;;;;;;;5070519;28;20055;-85
2021/12/12 00:48:45;;;;;;;22.70;14.27;;;;;;;;;;5065360;28;20040;-85
2021/12/12 00:51:15;;;;;;;25.30;13.73;;;;;;;;;;5081583;28;20051;-85
2021/12/12 00:53:42;;;;;;;22.35;12.55;;;;;;;;;;5063212;28;20040;-84
2021/12/12 00:56:08;;;;;;;22.85;12.15;;;;;;;;;;5083641;28;20431;-85
2021/12/12 00:58:35;;;;;;;22.08;11.70;;;;;;;;;;5061355;28;20054;-85
2021/12/12 01:01:14;;;;;;;17.58;11.18;;;;;;;;;;5061976;28;20036;-85
2021/12/12 01:03:48;;;;;;;18.27;11.75;;;;;;;;;;5063054;28;20060;-86
2021/12/12 01:06:14;;;;;;;18.23;12.70;;;;;;;;;;5072205;28;20036;-84
2021/12/12 01:08:43;;;;;;;24.70;15.13;;;;;;;;;;5079355;28;20071;-86
2021/12/12 01:11:16;;;;;;;26.50;15.13;;;;;;;;;;5063929;28;20024;-85
2021/12/12 01:13:42;;;;;;;21.75;12.80;;;;;;;;;;5065936;28;20051;-85
2021/12/12 01:16:18;;;;;;;21.90;13.48;;;;;;;;;;5065042;28;20101;-83
2021/12/12 01:18:52;;;;;;;25.70;13.40;;;;;;;;;;5062245;28;20052;-84
2021/12/12 01:21:25;;;;;;;21.17;12.90;;;;;;;;;;5063426;28;20028;-84
2021/12/12 01:24:15;;;;;;;19.13;12.77;;;;;;;;;;5058184;28;20528;-85
2021/12/12 01:26:42;;;;;;;19.35;11.52;;;;;;;;;;5062353;28;20033;-84
2021/12/12 01:29:09;;;;;;;18.00;11.00;;;;;;;;;;5060986;28;20033;-84
2021/12/12 01:31:39;;;;;;;18.58;12.13;;;;;;;;;;5058617;28;20037;-84
2021/12/12 01:34:14;;;;;;;;;;;;;;;;;;5067709;28;20017;-84
2021/12/12 01:39:26;;;;;;;19.63;12.38;;;;;;;;;;5066250;28;20485;-85
2021/12/12 01:42:01;;;;;;;20.88;12.05;;;;;;;;;;5066645;28;20036;-85
2021/12/12 01:44:32;;;;;;;29.58;16.02;;;;;;;;;;5071458;28;20024;-84
2021/12/12 01:47:24;;;;;;;24.98;15.93;;;;;;;;;;5059971;28;20499;-85
2021/12/12 01:49:54;;;;;;;23.35;12.95;;;;;;;;;;5087254;28;20469;-85
2021/12/12 01:52:25;;;;;;;;;;;;;;;;;;5070938;28;20024;-85
2021/12/12 01:54:57;;;;;;;48.92;19.35;;;;;;;;;;5066666;28;19942;-85
2021/12/12 01:57:30;;;;;;;41.65;19.50;;;;;;;;;;5068228;28;20028;-84
2021/12/12 01:59:59;;;;;;;47.63;21.25;;;;;;;;;;5072368;28;20034;-85
2021/12/12 02:02:32;;;;;;;144.05;30.05;;;;;;;;;;5081088;28;20110;-85
2021/12/12 02:05:04;;;;;;;34.58;18.52;;;;;;;;;;5060521;28;20033;-85
2021/12/12 02:07:35;;;;;;;50.78;24.27;;;;;;;;;;5064589;28;20037;-85
2021/12/12 02:10:07;;;;;;;29.45;15.57;;;;;;;;;;5068719;28;20077;-85
2021/12/12 02:12:33;;;;;;;30.27;16.48;;;;;;;;;;5078928;28;20480;-84
2021/12/12 02:14:59;;;;;;;25.77;15.38;;;;;;;;;;5074549;28;20044;-85
2021/12/12 02:17:37;;;;;;;31.30;16.02;;;;;;;;;;5084491;28;20037;-85
2021/12/12 02:20:18;;;;;;;39.35;22.02;;;;;;;;;;5062250;28;20029;-85
2021/12/12 02:23:01;;;;;;;33.35;17.20;;;;;;;;;;5066557;28;20039;-85
2021/12/12 02:36:31;;;;;;;27.92;14.60;;;;;;;;;;5066073;28;20085;-86
2021/12/12 02:38:58;;;;;;;29.52;14.68;;;;;;;;;;5079143;28;20054;-89
2021/12/12 02:41:26;;;;;;;20.38;11.57;;;;;;;;;;5067240;28;20033;-87
2021/12/12 02:43:59;;;;;;;15.50;9.32;;;;;;;;;;5063727;28;20025;-88
2021/12/12 02:46:33;;;;;;;14.65;9.05;;;;;;;;;;5077482;28;20054;-88
2021/12/12 02:49:08;;;;;;;8.32;4.03;;;;;;;;;;5084669;28;20032;-88
2021/12/12 02:51:38;;;;;;;6.55;3.92;;;;;;;;;;5061299;28;20123;-87
2021/12/12 02:54:05;;;;;;;6.18;2.80;;;;;;;;;;5081621;28;20035;-86
2021/12/12 02:56:35;;;;;;;5.47;3.45;;;;;;;;;;5061750;28;20040;-86
2021/12/12 02:59:03;;;;;;;;;;;;;;;;;;5067104;28;20480;-87
2021/12/12 03:01:36;;;;;;;9.15;5.88;;;;;;;;;;5079823;28;20378;-86
2021/12/12 03:04:02;;;;;;;7.95;4.93;;;;;;;;;;5062271;28;20017;-87
2021/12/12 03:06:31;;;;;;;8.98;5.93;;;;;;;;;;5063700;28;20032;-88
2021/12/12 03:09:08;;;;;;;9.18;4.82;;;;;;;;;;5059294;28;20368;-87
2021/12/12 03:11:34;;;;;;;6.00;3.55;;;;;;;;;;5061166;28;20040;-88
2021/12/12 03:14:00;;;;;;;5.15;2.70;;;;;;;;;;5086313;28;20039;-88
2021/12/12 03:16:26;;;;;;;2.42;1.67;;;;;;;;;;5062027;28;20028;-88
2021/12/12 03:18:51;;;;;;;3.42;2.00;;;;;;;;;;5058228;28;20044;-87
2021/12/12 03:21:30;;;;;;;2.70;1.92;;;;;;;;;;5083769;28;20033;-87
2021/12/12 03:24:02;;;;;;;3.85;2.42;;;;;;;;;;5070777;28;20836;-88
2021/12/12 03:26:28;;;;;;;4.07;2.38;;;;;;;;;;5061022;28;20025;-88
2021/12/12 03:28:55;;;;;;;4.00;2.00;;;;;;;;;;5065590;28;20497;-88
2021/12/12 03:31:29;;;;;;;3.35;1.95;;;;;;;;;;5063466;28;20056;-88
2021/12/12 03:33:55;;;;;;;5.75;3.20;;;;;;;;;;5061213;28;20479;-88
2021/12/12 03:36:22;;;;;;;5.35;3.60;;;;;;;;;;5059863;28;20874;-88
2021/12/12 03:38:56;;;;;;;5.40;3.92;;;;;;;;;;5063394;28;20029;-88
2021/12/12 03:41:28;;;;;;;15.68;9.13;;;;;;;;;;5067176;28;20020;-88
2021/12/12 03:43:58;;;;;;;16.10;11.00;;;;;;;;;;5082900;28;20429;-89
2021/12/12 03:46:25;;;;;;;19.05;11.43;;;;;;;;;;5068333;28;20101;-88
2021/12/12 03:48:51;;;;;;;16.15;10.75;;;;;;;;;;5066094;28;20472;-88
2021/12/12 03:51:20;;;;;;;16.25;10.40;;;;;;;;;;5084138;28;20021;-89
2021/12/12 03:53:46;;;;;;;15.30;10.48;;;;;;;;;;5065226;28;20051;-89
2021/12/12 03:56:14;;;;;;;14.23;11.18;;;;;;;;;;5079601;28;20069;-90
2021/12/12 03:58:42;;;;;;;23.00;15.70;;;;;;;;;;5062345;28;20176;-90
2021/12/12 04:01:19;;;;;;;22.52;12.25;;;;;;;;;;5055684;28;20044;-89
2021/12/12 04:03:46;;;;;;;13.75;10.70;;;;;;;;;;5062364;28;20024;-90
2021/12/12 04:06:17;;;;;;;18.33;11.32;;;;;;;;;;5076412;28;20094;-87
2021/12/12 04:08:47;;;;;;;13.25;8.70;;;;;;;;;;5064981;28;20419;-88
2021/12/12 04:11:23;;;;;;;15.65;9.73;;;;;;;;;;5066176;28;20029;-88
2021/12/12 04:13:51;;;;;;;12.95;9.02;;;;;;;;;;5064956;28;20032;-86
2021/12/12 04:16:20;;;;;;;13.20;9.23;;;;;;;;;;5075334;28;20032;-87
2021/12/12 04:18:47;;;;;;;13.60;9.15;;;;;;;;;;5076845;28;20066;-87
2021/12/12 04:21:16;;;;;;;12.88;9.07;;;;;;;;;;5077846;28;20094;-87
2021/12/12 04:23:42;;;;;;;16.95;10.20;;;;;;;;;;5076408;28;20036;-87
2021/12/12 04:26:12;;;;;;;13.35;9.73;;;;;;;;;;5070000;28;20029;-87
2021/12/12 04:28:39;;;;;;;12.93;8.60;;;;;;;;;;5061167;28;20036;-87
2021/12/12 04:31:05;;;;;;;14.50;9.77;;;;;;;;;;5066868;28;20102;-87
2021/12/12 04:33:30;;;;;;;15.93;11.35;;;;;;;;;;5080665;28;20457;-84
2021/12/12 04:35:56;;;;;;;9.90;8.02;;;;;;;;;;5063139;28;20131;-87
2021/12/12 04:38:23;;;;;;;12.32;7.70;;;;;;;;;;5064038;28;20029;-87
2021/12/12 04:40:48;;;;;;;10.02;5.15;;;;;;;;;;5061693;28;20101;-86
2021/12/12 04:43:14;;;;;;;7.20;4.57;;;;;;;;;;5063271;28;20074;-86
2021/12/12 04:46:08;;;;;;;8.55;5.20;;;;;;;;;;5064537;28;20057;-86
2021/12/12 04:51:38;;;;;;;7.35;4.70;;;;;;;;;;5064390;28;20034;-87
2021/12/12 04:54:24;;;;;;;5.82;4.00;;;;;;;;;;5058451;28;20025;-87
2021/12/12 04:56:59;;;;;;;6.03;4.38;;;;;;;;;;5067679;28;20025;-86
2021/12/12 04:59:34;;;;;;;6.80;5.10;;;;;;;;;;5062451;28;20033;-88
2021/12/12 05:02:28;;;;;;;10.77;7.32;;;;;;;;;;5065242;28;20025;-88
2021/12/12 05:05:11;;;;;;;11.40;7.93;;;;;;;;;;5078020;28;20032;-87
2021/12/12 05:07:46;;;;;;;11.07;8.50;;;;;;;;;;5078884;28;20475;-88
2021/12/12 05:10:27;;;;;;;11.05;7.82;;;;;;;;;;5062942;28;20027;-87
2021/12/12 05:13:05;;;;;;;8.43;6.38;;;;;;;;;;5078221;28;20020;-87
2021/12/12 05:15:46;;;;;;;6.20;4.68;;;;;;;;;;5068911;28;20052;-87
2021/12/12 05:18:28;;;;;;;6.00;3.65;;;;;;;;;;5062910;28;20135;-87
2021/12/12 05:21:06;;;;;;;5.97;4.15;;;;;;;;;;5065655;28;20079;-88
2021/12/12 05:23:33;;;;;;;7.47;5.03;;;;;;;;;;5067620;28;20028;-87
2021/12/12 05:26:13;;;;;;;10.45;5.65;;;;;;;;;;5066349;28;20028;-86
2021/12/12 05:29:21;;;;;;;6.25;4.57;;;;;;;;;;5072201;28;20055;-88
2021/12/12 05:31:48;;;;;;;5.45;3.45;;;;;;;;;;5039456;28;20033;-85
2021/12/12 05:34:17;;;;;;;4.05;3.03;;;;;;;;;;5057452;28;20029;-85
2021/12/12 05:36:44;;;;;;;4.18;2.85;;;;;;;;;;5081174;28;20487;-87
2021/12/12 05:39:10;;;;;;;5.60;3.70;;;;;;;;;;5081043;28;20044;-86
2021/12/12 05:41:35;;;;;;;7.60;4.68;;;;;;;;;;5083813;28;20382;-85
2021/12/12 05:44:03;;;;;;;7.75;4.70;;;;;;;;;;5072334;28;20028;-86
2021/12/12 05:46:29;;;;;;;4.80;3.63;;;;;;;;;;5067360;28;20141;-86
2021/12/12 05:48:55;;;;;;;8.63;3.53;;;;;;;;;;5062155;28;20068;-86
2021/12/12 05:51:21;;;;;;;5.70;3.72;;;;;;;;;;5086654;28;20032;-85
2021/12/12 05:53:54;;;;;;;8.60;5.95;;;;;;;;;;5076861;28;20063;-86
2021/12/12 05:56:26;;;;;;;5.40;3.33;;;;;;;;;;5062941;28;20036;-86
2021/12/12 05:58:52;;;;;;;6.13;4.50;;;;;;;;;;5070562;28;20044;-86
2021/12/12 06:01:19;;;;;;;4.55;3.38;;;;;;;;;;5083085;28;20028;-84
2021/12/12 06:03:47;;;;;;;7.93;4.90;;;;;;;;;;5057597;28;20456;-87
2021/12/12 06:06:16;;;;;;;12.55;5.88;;;;;;;;;;5067895;28;20422;-87
2021/12/12 06:08:44;;;;;;;7.18;3.85;;;;;;;;;;5065901;28;20468;-85
2021/12/12 06:11:11;;;;;;;4.15;2.88;;;;;;;;;;5070377;28;20017;-87
2021/12/12 06:13:38;;;;;;;4.30;2.80;;;;;;;;;;5065722;28;20025;-84
2021/12/12 06:16:06;;;;;;;5.93;3.28;;;;;;;;;;5076175;28;21143;-87
2021/12/12 06:18:34;;;;;;;12.30;6.82;;;;;;;;;;5067315;28;20076;-84
2021/12/12 06:21:00;;;;;;;7.03;5.20;;;;;;;;;;5068165;28;20549;-85
2021/12/12 06:23:27;;;;;;;10.43;6.78;;;;;;;;;;5066315;28;20025;-83
2021/12/12 06:25:53;;;;;;;11.30;6.45;;;;;;;;;;5075431;28;20082;-82
2021/12/12 06:28:32;;;;;;;8.55;4.97;;;;;;;;;;5082083;28;20089;-84
2021/12/12 06:30:58;;;;;;;8.75;5.15;;;;;;;;;;5062446;28;20035;-85
2021/12/12 06:33:24;;;;;;;9.60;5.47;;;;;;;;;;5084851;28;20095;-81
2021/12/12 06:35:52;;;;;;;15.52;8.00;;;;;;;;;;5082121;28;20037;-84
2021/12/12 06:38:19;;;;;;;11.43;7.93;;;;;;;;;;5062799;28;20039;-85
2021/12/12 06:40:46;;;;;;;12.00;7.43;;;;;;;;;;5066005;28;20036;-85
2021/12/12 06:43:15;;;;;;;13.95;7.28;;;;;;;;;;5064500;28;20028;-86
2021/12/12 06:45:40;;;;;;;5.43;3.47;;;;;;;;;;5067433;28;20055;-85
2021/12/12 06:48:12;;;;;;;8.45;5.70;;;;;;;;;;5080668;28;20062;-84
2021/12/12 06:50:41;;;;;;;7.32;4.53;;;;;;;;;;5086177;28;20047;-81
2021/12/12 06:53:08;;;;;;;8.90;5.95;;;;;;;;;;5066995;28;20020;-82
2021/12/12 06:55:36;;;;;;;7.93;5.55;;;;;;;;;;5070456;28;20097;-83
2021/12/12 06:58:06;;;;;;;7.32;4.75;;;;;;;;;;5062271;28;20029;-84
2021/12/12 07:00:32;;;;;;;;;;;;;;;;;;5078843;28;20030;-83
2021/12/12 07:02:58;;;;;;;7.68;4.55;;;;;;;;;;5064530;28;20401;-83
2021/12/12 07:05:31;;;;;;;7.95;4.70;;;;;;;;;;5067672;28;20013;-84
2021/12/12 07:07:58;;;;;;;5.50;4.18;;;;;;;;;;5066351;28;20447;-82
2021/12/12 07:10:29;;;;;;;7.57;6.05;;;;;;;;;;5068771;28;20108;-82
2021/12/12 07:12:56;;;;;;;11.00;7.15;;;;;;;;;;5083207;28;20031;-85
2021/12/12 07:15:35;;;;;;;10.15;6.40;;;;;;;;;;5068183;28;20027;-83
2021/12/12 07:18:07;;;;;;;6.60;4.45;;;;;;;;;;5082193;28;20411;-83
2021/12/12 07:20:33;;;;;;;19.45;10.73;;;;;;;;;;5066763;28;20025;-81
2021/12/12 07:23:06;;;;;;;7.03;5.10;;;;;;;;;;5067720;28;20028;-83
2021/12/12 07:25:34;;;;;;;6.85;4.72;;;;;;;;;;5079738;28;20059;-83
2021/12/12 07:28:00;;;;;;;7.82;4.88;;;;;;;;;;5070598;28;20032;-82
2021/12/12 07:30:25;;;;;;;8.32;5.20;;;;;;;;;;5079478;28;20442;-79
2021/12/12 07:32:52;;;;;;;12.20;6.70;;;;;;;;;;5066459;28;20371;-82
2021/12/12 07:35:18;;;;;;;11.98;7.15;;;;;;;;;;5081345;28;20025;-82
2021/12/12 07:37:45;;;;;;;7.60;5.22;;;;;;;;;;5066436;28;20046;-82
2021/12/12 07:40:11;;;;;;;8.98;5.35;;;;;;;;;;5065332;28;20040;-81
2021/12/12 07:42:38;;;;;;;4.90;2.85;;;;;;;;;;5082264;28;20031;-79
2021/12/12 07:45:05;;;;;;;6.55;3.15;;;;;;;;;;5069637;28;20077;-78
2021/12/12 07:47:32;;;;;;;5.72;3.65;;;;;;;;;;5064818;28;20036;-79
2021/12/12 07:49:59;;;;;;;8.23;5.25;;;;;;;;;;5064981;28;20421;-79
2021/12/12 07:52:27;;;;;;;6.35;4.43;;;;;;;;;;5065346;28;20032;-80
2021/12/12 07:54:54;;;;;;;6.78;4.68;;;;;;;;;;5068480;28;20054;-79
2021/12/12 07:57:24;;;;;;;7.38;5.28;;;;;;;;;;5063563;28;20031;-79
2021/12/12 07:59:50;;;;;;;9.63;5.85;;;;;;;;;;5063443;28;20071;-84
2021/12/12 08:02:17;;;;;;;10.65;6.38;;;;;;;;;;5062243;28;20039;-80
2021/12/12 08:04:43;;;;;;;6.72;4.65;;;;;;;;;;5064336;28;20037;-80
2021/12/12 08:07:16;;;;;;;15.02;9.55;;;;;;;;;;5065721;28;20473;-81
2021/12/12 08:09:42;;;;;;;10.38;7.03;;;;;;;;;;5068084;28;20028;-80
2021/12/12 08:12:16;;;;;;;12.38;8.57;;;;;;;;;;5063267;28;20031;-81
2021/12/12 08:14:42;;;;;;;9.95;6.28;;;;;;;;;;5069944;28;20029;-79
2021/12/12 08:17:11;;;;;;;13.73;8.02;;;;;;;;;;5069270;28;20104;-78
2021/12/12 08:19:38;;;;;;;12.68;7.55;;;;;;;;;;5068164;28;20119;-78
2021/12/12 08:22:07;;;;;;;10.35;6.47;;;;;;;;;;5063084;28;20102;-78
2021/12/12 08:24:34;;;;;;;13.43;6.95;;;;;;;;;;5062558;28;20048;-79
2021/12/12 08:27:03;;;;;;;26.60;14.52;;;;;;;;;;5061886;28;20025;-79
2021/12/12 08:29:29;;;;;;;12.68;8.10;;;;;;;;;;5062844;28;20058;-79
2021/12/12 08:31:55;;;;;;;20.05;10.65;;;;;;;;;;5079428;28;20064;-79
2021/12/12 08:34:21;;;;;;;12.60;7.90;;;;;;;;;;5074320;28;20499;-80
2021/12/12 08:36:51;;;;;;;11.43;7.15;;;;;;;;;;5066291;28;20117;-79
2021/12/12 08:39:18;;;;;;;14.30;8.30;;;;;;;;;;5057211;28;20121;-78
2021/12/12 08:41:46;;;;;;;10.30;6.90;;;;;;;;;;5079355;28;20054;-78
2021/12/12 08:44:12;;;;;;;12.82;7.30;;;;;;;;;;5062354;28;20111;-79
2021/12/12 08:46:40;;;;;;;9.00;5.65;;;;;;;;;;5069410;28;20039;-79
2021/12/12 08:49:08;;;;;;;9.48;5.68;;;;;;;;;;5060826;28;20480;-79
2021/12/12 08:51:38;;;;;;;10.35;5.35;;;;;;;;;;5079783;28;20025;-77
2021/12/12 08:54:13;;;;;;;;;;;;;;;;;;5082091;28;20536;-78
2021/12/12 08:56:46;;;;;;;12.82;6.72;;;;;;;;;;5074307;28;20261;-79
2021/12/12 08:59:24;;;;;;;12.75;8.07;;;;;;;;;;5063464;28;20253;-78
2021/12/12 09:01:52;;;;;;;11.82;6.80;;;;;;;;;;5080565;28;20027;-78
2021/12/12 09:04:18;;;;;;;11.23;6.60;;;;;;;;;;5067722;28;20052;-78
2021/12/12 09:07:02;;;;;;;7.03;4.15;;;;;;;;;;5065359;28;20058;-78
2021/12/12 09:09:33;;;;;;;16.80;9.10;;;;;;;;;;5065549;28;20074;-77
2021/12/12 09:12:11;;;;;;;8.32;5.95;;;;;;;;;;5060729;28;20460;-77
2021/12/12 09:14:47;;;;;;;12.15;7.70;;;;;;;;;;5061948;28;20100;-78
2021/12/12 09:17:20;;;;;;;12.32;7.90;;;;;;;;;;5064603;28;20135;-78
2021/12/12 09:19:58;;;;;;;13.77;6.85;;;;;;;;;;5062651;28;20103;-77
2021/12/12 09:22:34;;;;;;;8.68;6.65;;;;;;;;;;5066514;28;20032;-78
2021/12/12 09:25:19;;;;;;;10.45;5.97;;;;;;;;;;5054956;28;20125;-77
2021/12/12 09:27:49;;;;;;;9.82;5.70;;;;;;;;;;5062024;28;20032;-79
2021/12/12 09:30:19;;;;;;;;;;;;;;;;;;5066530;28;20187;-78
2021/12/12 09:33:06;;;;;;;9.05;6.47;;;;;;;;;;5065799;28;19920;-77
2021/12/12 09:35:55;;;;;;;9.60;6.00;;;;;;;;;;5069072;28;20055;-77
2021/12/12 09:38:28;;;;;;;12.50;6.82;;;;;;;;;;5064115;28;20028;-78
2021/12/12 09:41:13;;;;;;;11.27;6.78;;;;;;;;;;5065462;28;20032;-77
2021/12/12 09:44:14;;;;;;;16.52;9.77;;;;;;;;;;5064567;28;20029;-78
2021/12/12 09:47:00;;;;;;;12.75;7.72;;;;;;;;;;5063905;28;20032;-79
2021/12/12 09:52:33;;;;;;;15.30;8.77;;;;;;;;;;5066424;28;20086;-79
2021/12/12 09:55:13;;;;;;;8.98;6.85;;;;;;;;;;5067263;28;20027;-78
2021/12/12 09:57:54;;;;;;;8.73;5.00;;;;;;;;;;5066303;28;20032;-79
2021/12/12 10:00:25;;;;;;;8.50;5.82;;;;;;;;;;5069939;28;20086;-79
2021/12/12 10:03:14;;;;;;;13.00;7.65;;;;;;;;;;5063287;28;20654;-78
2021/12/12 10:06:09;;;;;;;22.07;11.37;;;;;;;;;;5069327;28;20113;-77
2021/12/12 10:08:49;;;;;;;22.08;12.07;;;;;;;;;;5084186;28;20311;-78
2021/12/12 10:11:40;;;;;;;14.90;8.27;;;;;;;;;;5067243;28;20020;-79
2021/12/12 10:14:11;;;;;;;22.27;10.40;;;;;;;;;;5069526;28;20033;-78
2021/12/12 10:16:58;;;;;;;17.67;9.60;;;;;;;;;;5064894;28;20106;-79
2021/12/12 10:19:46;;;;;;;15.68;9.63;;;;;;;;;;5072259;28;20487;-78
2021/12/12 10:22:14;;;;;;;19.60;11.60;;;;;;;;;;5062102;28;20028;-79
2021/12/12 10:24:44;;;;;;;20.15;12.35;;;;;;;;;;5065136;28;20032;-78
2021/12/12 10:27:48;;;;;;;20.15;11.82;;;;;;;;;;5062850;28;20060;-79
2021/12/12 10:30:20;;;;;;;10.82;7.28;;;;;;;;;;5033651;28;20049;-78
2021/12/12 10:33:03;;;;;;;9.65;6.75;;;;;;;;;;5068574;28;20467;-79
2021/12/12 10:35:41;;;;;;;9.27;6.65;;;;;;;;;;5065169;28;20387;-78
2021/12/12 10:38:27;;;;;;;16.65;8.73;;;;;;;;;;5064662;28;20081;-78
2021/12/12 10:41:01;;;;;;;16.42;8.05;;;;;;;;;;5067431;28;20036;-78
2021/12/12 10:43:38;;;;;;;16.52;8.57;;;;;;;;;;5067513;28;20028;-79
2021/12/12 10:46:10;;;;;;;11.73;8.40;;;;;;;;;;5068037;28;20024;-79
2021/12/12 10:48:45;;;;;;;16.25;9.95;;;;;;;;;;5069250;28;20387;-77
2021/12/12 10:51:17;;;;;;;13.95;7.90;;;;;;;;;;5069074;28;20056;-77
2021/12/12 10:53:54;;;;;;;11.05;9.07;;;;;;;;;;5067454;28;20031;-77
2021/12/12 10:56:30;;;;;;;14.38;8.90;;;;;;;;;;5063329;28;20017;-78
2021/12/12 10:59:02;;;;;;;16.08;9.18;;;;;;;;;;5065479;28;20025;-78
2021/12/12 11:01:35;;;;;;;15.98;9.98;;;;;;;;;;5066236;28;20024;-77
2021/12/12 11:04:21;;;;;;;16.20;10.18;;;;;;;;;;5066123;28;20036;-78
2021/12/12 11:06:59;;;;;;;17.38;10.18;;;;;;;;;;5067092;28;20044;-77
2021/12/12 11:09:45;;;;;;;19.40;12.05;;;;;;;;;;5069220;28;20052;-78
2021/12/12 11:12:21;;;;;;;21.50;13.50;;;;;;;;;;5070751;28;20031;-80
2021/12/12 11:15:02;;;;;;;26.48;16.48;;;;;;;;;;5070627;28;20471;-83
2021/12/12 11:17:31;;;;;;;20.90;11.10;;;;;;;;;;5085492;28;20053;-80
2021/12/12 11:20:15;;;;;;;15.98;10.35;;;;;;;;;;5069029;28;20557;-84
2021/12/12 11:22:46;;;;;;;19.08;11.82;;;;;;;;;;5065876;28;20033;-80
2021/12/12 11:25:19;;;;;;;14.50;9.27;;;;;;;;;;5063543;28;20046;-81
2021/12/12 11:27:56;;;;;;;11.68;7.13;;;;;;;;;;5064622;28;20036;-82
2021/12/12 11:30:38;;;;;;;11.95;6.53;;;;;;;;;;5068285;28;20078;-80
2021/12/12 11:33:06;;;;;;;12.43;7.45;;;;;;;;;;5068788;28;20028;-79
2021/12/12 11:35:33;;;;;;;11.80;8.10;;;;;;;;;;5064546;28;20475;-80
2021/12/12 11:38:16;;;;;;;10.45;7.45;;;;;;;;;;5069787;28;20056;-80
2021/12/12 11:40:48;;;;;;;10.27;6.93;;;;;;;;;;5069266;28;20036;-80
2021/12/12 11:44:07;;;;;;;10.90;7.32;;;;;;;;;;5084496;28;20107;-80
2021/12/12 11:46:47;;;;;;;10.68;5.72;;;;;;;;;;5062083;28;20036;-80
2021/12/12 11:49:22;;;;;;;12.90;7.80;;;;;;;;;;5064080;28;20037;-79
2021/12/12 11:51:54;;;;;;;11.23;6.95;;;;;;;;;;5067981;28;20036;-81
2021/12/12 11:54:55;;;;;;;16.85;8.00;;;;;;;;;;5063470;28;20020;-78
2021/12/12 11:57:25;;;;;;;13.65;8.68;;;;;;;;;;5067802;28;20024;-79
2021/12/12 12:00:06;;;;;;;14.57;9.48;;;;;;;;;;5069733;28;20377;-80
2021/12/12 12:02:41;;;;;;;13.15;8.30;;;;;;;;;;5066067;28;20025;-78
2021/12/12 12:05:13;;;;;;;12.25;8.50;;;;;;;;;;5067141;28;20028;-79
2021/12/12 12:08:18;;;;;;;15.20;9.55;;;;;;;;;;5058666;28;20423;-80
2021/12/12 12:11:09;;;;;;;15.77;8.73;;;;;;;;;;5046577;28;20472;-79
2021/12/12 12:13:40;;;;;;;14.15;11.18;;;;;;;;;;5064356;28;20084;-79
2021/12/12 12:16:17;;;;;;;11.13;8.60;;;;;;;;;;5063871;28;20035;-78
2021/12/12 12:19:02;;;;;;;11.25;7.63;;;;;;;;;;5076653;28;20092;-78
2021/12/12 12:21:39;;;;;;;16.27;8.90;;;;;;;;;;5079866;28;20029;-78
2021/12/12 12:24:39;;;;;;;16.10;8.48;;;;;;;;;;5062325;28;20021;-78
2021/12/12 12:27:17;;;;;;;14.80;8.13;;;;;;;;;;5063713;28;20107;-82
2021/12/12 12:30:00;;;;;;;13.45;8.38;;;;;;;;;;5065845;28;20381;-78
2021/12/12 12:33:10;;;;;;;9.15;5.97;;;;;;;;;;5064355;28;20492;-79
2021/12/12 12:36:00;;;;;;;9.15;6.25;;;;;;;;;;5007627;28;20120;-79
2021/12/12 12:38:56;;;;;;;16.45;9.77;;;;;;;;;;5006654;28;20042;-79
2021/12/12 12:42:13;;;;;;;8.35;5.50;;;;;;;;;;5056239;28;20040;-79
2021/12/12 12:45:17;;;;;;;9.38;6.35;;;;;;;;;;5076179;28;20051;-79
2021/12/12 12:48:20;;;;;;;9.48;6.72;;;;;;;;;;5063310;28;20465;-79
2021/12/12 12:51:16;;;;;;;8.35;5.28;;;;;;;;;;5066998;28;20021;-79
2021/12/12 12:53:50;;;;;;;9.57;5.20;;;;;;;;;;5064636;28;20323;-79
2021/12/12 12:56:34;;;;;;;6.68;3.95;;;;;;;;;;5064936;28;20024;-78
2021/12/12 12:59:29;;;;;;;8.32;5.45;;;;;;;;;;5068898;28;20056;-79
2021/12/12 13:02:16;;;;;;;5.63;3.65;;;;;;;;;;5048886;28;20491;-78
2021/12/12 13:04:58;;;;;;;6.75;3.95;;;;;;;;;;5066171;28;20040;-78
2021/12/12 13:08:07;;;;;;;7.45;4.75;;;;;;;;;;5066363;28;20086;-78
2021/12/12 13:10:37;;;;;;;6.65;4.10;;;;;;;;;;5063661;28;20021;-80
2021/12/12 13:13:39;;;;;;;6.32;5.18;;;;;;;;;;5078851;28;20047;-78
2021/12/12 13:16:28;;;;;;;7.38;4.88;;;;;;;;;;5027810;28;20037;-78
2021/12/12 13:19:09;;;;;;;6.38;4.18;;;;;;;;;;5066706;28;20040;-82
2021/12/12 13:21:37;;;;;;;8.23;5.63;;;;;;;;;;5067539;28;20067;-78
2021/12/12 13:24:15;;;;;;;6.95;4.80;;;;;;;;;;5057537;28;20028;-78
2021/12/12 13:27:11;;;;;;;9.23;5.60;;;;;;;;;;5068953;28;20036;-78
2021/12/12 13:30:09;;;;;;;5.65;3.70;;;;;;;;;;5067533;28;20070;-79
2021/12/12 13:33:01;;;;;;;9.23;6.10;;;;;;;;;;5070314;28;20036;-79
2021/12/12 13:35:32;;;;;;;8.18;5.30;;;;;;;;;;5067884;28;20419;-78
2021/12/12 13:38:22;;;;;;;15.25;8.48;;;;;;;;;;5067002;28;20430;-78
2021/12/12 13:41:18;;;;;;;9.30;5.53;;;;;;;;;;5068876;28;20039;-78
2021/12/12 13:43:58;;;;;;;13.52;7.55;;;;;;;;;;5088094;28;20055;-78
2021/12/12 13:46:46;;;;;;;12.65;6.45;;;;;;;;;;5079497;28;20028;-78
2021/12/12 13:49:20;;;;;;;10.25;6.63;;;;;;;;;;5064655;28;20478;-78
2021/12/12 13:52:22;;;;;;;13.38;7.80;;;;;;;;;;5071074;28;20115;-79
2021/12/12 13:55:01;;;;;;;14.10;7.82;;;;;;;;;;5059109;28;20511;-78
2021/12/12 13:57:36;;;;;;;16.60;10.10;;;;;;;;;;5073682;28;20024;-78
2021/12/12 14:00:21;;;;;;;12.15;7.30;;;;;;;;;;5073382;28;20040;-81
2021/12/12 14:02:55;;;;;;;11.85;7.25;;;;;;;;;;5073209;28;20070;-78
2021/12/12 14:05:21;;;;;;;13.23;7.53;;;;;;;;;;5071806;28;20506;-78
2021/12/12 14:08:04;;;;;;;14.10;8.00;;;;;;;;;;5071537;28;20024;-78
2021/12/12 14:10:38;;;;;;;16.73;8.85;;;;;;;;;;5071380;28;20036;-78
2021/12/12 14:13:09;;;;;;;15.82;9.52;;;;;;;;;;5081575;28;20058;-78
2021/12/12 14:16:18;;;;;;;20.42;10.63;;;;;;;;;;5072883;28;20074;-80
2021/12/12 14:18:47;;;;;;;19.38;9.73;;;;;;;;;;5024565;28;20056;-81
2021/12/12 14:21:15;;;;;;;11.35;8.57;;;;;;;;;;5071442;28;20078;-79
2021/12/12 14:23:41;;;;;;;13.18;9.50;;;;;;;;;;5071286;28;20383;-77
2021/12/12 14:26:10;;;;;;;13.18;8.43;;;;;;;;;;5066791;28;20036;-77
2021/12/12 14:28:39;;;;;;;13.80;7.75;;;;;;;;;;5072302;28;20040;-77
2021/12/12 14:31:07;;;;;;;14.15;8.45;;;;;;;;;;5071492;28;20381;-77
2021/12/12 14:33:38;;;;;;;12.70;8.40;;;;;;;;;;5071410;28;20123;-78
2021/12/12 14:36:10;;;;;;;12.10;7.35;;;;;;;;;;5070649;28;20031;-77
2021/12/12 14:38:36;;;;;;;10.75;7.22;;;;;;;;;;5072851;28;20025;-78
2021/12/12 14:41:04;;;;;;;13.70;8.50;;;;;;;;;;5071923;28;20078;-78
2021/12/12 14:43:43;;;;;;;14.98;9.73;;;;;;;;;;5084590;28;20028;-78
2021/12/12 14:46:19;;;;;;;11.15;7.95;;;;;;;;;;5066624;28;20479;-81
2021/12/12 14:49:03;;;;;;;12.13;6.30;;;;;;;;;;5065041;28;20029;-79
2021/12/12 14:51:37;;;;;;;9.05;5.60;;;;;;;;;;5072623;28;20055;-78
2021/12/12 14:54:08;;;;;;;10.63;6.13;;;;;;;;;;5071701;28;20028;-79
2021/12/12 14:56:38;;;;;;;12.10;7.05;;;;;;;;;;5072423;28;20032;-79
2021/12/12 14:59:09;;;;;;;10.07;6.03;;;;;;;;;;5071083;28;20515;-78
2021/12/12 15:01:40;;;;;;;10.70;6.88;;;;;;;;;;5072444;28;20040;-79
2021/12/12 15:04:14;;;;;;;10.55;6.75;;;;;;;;;;5072203;28;20111;-78
2021/12/12 15:06:45;;;;;;;9.85;6.22;;;;;;;;;;5066043;28;20032;-81
2021/12/12 15:09:25;;;;;;;11.65;7.38;;;;;;;;;;5066976;28;20035;-80
2021/12/12 15:11:55;;;;;;;9.85;6.90;;;;;;;;;;5068331;28;20029;-80
2021/12/12 15:14:25;;;;;;;9.80;6.85;;;;;;;;;;5066016;28;20039;-81
2021/12/12 15:16:52;;;;;;;7.10;5.07;;;;;;;;;;5071130;28;20430;-78
2021/12/12 15:19:30;;;;;;;10.52;5.95;;;;;;;;;;5068255;28;20124;-81
2021/12/12 15:22:06;;;;;;;13.00;6.85;;;;;;;;;;5084973;28;20036;-78
2021/12/12 15:24:35;;;;;;;16.20;8.50;;;;;;;;;;5078329;28;20483;-78
2021/12/12 15:27:08;;;;;;;12.60;7.35;;;;;;;;;;5071293;28;20040;-78
2021/12/12 15:29:36;;;;;;;7.53;5.88;;;;;;;;;;5070721;28;20035;-79
2021/12/12 15:32:14;;;;;;;12.68;5.85;;;;;;;;;;5072043;28;20020;-78
2021/12/12 15:34:44;;;;;;;11.52;7.32;;;;;;;;;;5071335;28;20067;-79